フェニックス の空港の天気 - METARとTAF

フェニックス・スカイハーバー国際空港 ( KPHX / PHX ) - アメリカ アリゾナ州フェニックス
飛行場実況気象(Metar)
観測時間12/09 21:51 MST (12/10 04:51 UTC)
風向・風速静穏 0m/s
視程10km以上
天気現象
全天の4割程度の雲 雲底高度 7620m
気温13.3℃
湿度67%
気圧1022hPa
METARKPHX 100451Z 00000KT 10SM SCT250 13/07 A3020 RMK AO2 SLP220 T01330072
過去の天気等 Google飛行場航空写真 Wunderground天気予報

過去48時間のMETAR

飛行場予報(TAF)
発表時間: 12/09 19:07 MST (12/10 02:07 UTC)
予報対象時間: 9日19時 MST ~ 10日23時 MST
風向・風速西南西 3m/s
視程10km以上
全天の8割程度の雲 雲底高度 7620m
9日22時 MST から
風向・風速東 2m/s
視程10km以上
全天の8割程度の雲 雲底高度 6100m
10日11時 MST ~ 10日15時 MST に一時的に
風向・風速東 4m/s 瞬間風速 8m/s
全天の8割程度の雲 雲底高度 5490m
KPHX 100207Z 1002/1106 25005KT P6SM BKN250
FM100500 09004KT P6SM BKN200
TEMPO 1018/1022 09008G15KT BKN180